Medway, Ohio
Current Conditions -  °F | °C
As of 4:08 AM on Monday 24 Nov 2014 (Local Time) from KFFO Reporting Station
Overcast Overcast  
Wind Chill: 59°   Ceiling: 2100
Heat Index: 59°   Visibility: 10mi
Dew Point: 55°   Wind: 24mph
Humidity: 88%   Direction: 200°SSW
Pressure: 29.31"   Gusts: 30mph
Location:  39.88°N, 84.02°W
Report Text: KFFO 240908Z 20021G26KT 10SM BKN021 OVC031 15/13 A2931 RMK AO2A
Loading
Personal Weather Stations






























Interactive Weather Map New forecast layout! Learn more

10-Day Weather Forecast

Advertisements
Track Severe Weather on mobile